C-tow Victoria — CFN6672 — position and weather

sailwx.info

Track history (hours):
 
Tides and Currents Weather Stations Pressure Air Temp Water Temp Dewpoint Dewpoint Depression Visibility Wind Speed Wind Dir Waves Ship Positions

C-tow Victoria

Last reported at 2017-Oct-21 23:38 UTC. Time now 2017-Oct-22 04:56 UTC.
Position N 48°25' W 123°18'.

Length 8 m.

MMSI: 316016881.

Date/timePositionNaut miles runAvg speedWind from/ knotsBaromVisibWave heightAir tempDewpointWater temp
2017-Oct-21 23:38N 48°25' W 123°18'0 0.3
2017-Oct-21 23:30N 48°25' W 123°18'0 0.7
2017-Oct-21 23:00N 48°26' W 123°18'2 4.3
2017-Oct-21 22:29N 48°28' W 123°17'2 3.5
2017-Oct-21 22:00N 48°26' W 123°17'1 0.0
2017-Oct-20 23:48N 48°25' W 123°18'1 3.8
2017-Oct-20 23:25N 48°24' W 123°18'1 0.2
2017-Oct-20 16:40N 48°25' W 123°18'0 0.8
2017-Oct-20 16:30N 48°26' W 123°18'0 0.0
2017-Oct-19 23:22N 48°25' W 123°18'3 8.8
2017-Oct-19 23:01N 48°25' W 123°23'1 0.3
2017-Oct-19 21:11N 48°26' W 123°23'1 3.8
2017-Oct-19 21:00N 48°25' W 123°23'3 0.1
2017-Oct-18 21:38N 48°25' W 123°18'0 0.5
2017-Oct-18 21:28N 48°26' W 123°18'2 4.9
2017-Oct-18 21:00N 48°26' W 123°15'2 4.4
2017-Oct-18 20:29N 48°25' W 123°18'  
2017-Oct-14 22:17N 48°25' W 123°18'2 6.7
2017-Oct-14 21:59N 48°27' W 123°18'0 0.0
2017-Oct-14 21:29N 48°27' W 123°18'0 0.6
2017-Oct-14 20:59N 48°27' W 123°18'0 0.0
2017-Oct-14 20:28N 48°27' W 123°18'0 0.0
2017-Oct-14 19:55N 48°27' W 123°18'0 0.1
2017-Oct-14 19:31N 48°27' W 123°18'0 0.1
2017-Oct-14 18:57N 48°27' W 123°18'0 0.5
2017-Oct-14 18:29N 48°27' W 123°18'0 0.2
2017-Oct-14 18:00N 48°27' W 123°18'0 0.4
2017-Oct-14 17:30N 48°27' W 123°18'0 0.0
2017-Oct-14 16:58N 48°27' W 123°18'0 0.3
2017-Oct-14 16:28N 48°27' W 123°18'2 3.0
2017-Oct-14 15:55N 48°25' W 123°18'  
Track history (hours):
 
Tides and Currents Weather Stations Pressure Air Temp Water Temp Dewpoint Dewpoint Depression Visibility Wind Speed Wind Dir Waves Ship Positions

C-tow Victoria

Last reported at 2017-Oct-21 23:38 UTC. Time now 2017-Oct-22 04:56 UTC.
Position N 48°25' W 123°18'.

Length 8 m.

MMSI: 316016881.

Date/timePositionNaut miles runAvg speedWind from/ knotsBaromVisibWave heightAir tempDewpointWater temp
2017-Oct-21 23:38N 48°25' W 123°18'0 0.3
2017-Oct-21 23:30N 48°25' W 123°18'0 0.7
2017-Oct-21 23:00N 48°26' W 123°18'2 4.3
2017-Oct-21 22:29N 48°28' W 123°17'2 3.5
2017-Oct-21 22:00N 48°26' W 123°17'1 0.0
2017-Oct-20 23:48N 48°25' W 123°18'1 3.8
2017-Oct-20 23:25N 48°24' W 123°18'1 0.2
2017-Oct-20 16:40N 48°25' W 123°18'0 0.8
2017-Oct-20 16:30N 48°26' W 123°18'0 0.0
2017-Oct-19 23:22N 48°25' W 123°18'3 8.8
2017-Oct-19 23:01N 48°25' W 123°23'1 0.3
2017-Oct-19 21:11N 48°26' W 123°23'1 3.8
2017-Oct-19 21:00N 48°25' W 123°23'3 0.1
2017-Oct-18 21:38N 48°25' W 123°18'0 0.5
2017-Oct-18 21:28N 48°26' W 123°18'2 4.9
2017-Oct-18 21:00N 48°26' W 123°15'2 4.4
2017-Oct-18 20:29N 48°25' W 123°18'  
2017-Oct-14 22:17N 48°25' W 123°18'2 6.7
2017-Oct-14 21:59N 48°27' W 123°18'0 0.0
2017-Oct-14 21:29N 48°27' W 123°18'0 0.6
2017-Oct-14 20:59N 48°27' W 123°18'0 0.0
2017-Oct-14 20:28N 48°27' W 123°18'0 0.0
2017-Oct-14 19:55N 48°27' W 123°18'0 0.1
2017-Oct-14 19:31N 48°27' W 123°18'0 0.1
2017-Oct-14 18:57N 48°27' W 123°18'0 0.5
2017-Oct-14 18:29N 48°27' W 123°18'0 0.2
2017-Oct-14 18:00N 48°27' W 123°18'0 0.4
2017-Oct-14 17:30N 48°27' W 123°18'0 0.0
2017-Oct-14 16:58N 48°27' W 123°18'0 0.3
2017-Oct-14 16:28N 48°27' W 123°18'2 3.0
2017-Oct-14 15:55N 48°25' W 123°18'  

Dump ship's entire track history